Victoria Regional Airport
KVCT : rendu visible

Aérodrome :











RETROUVEZ-NOUS SUR...

 
LOGIN :

S'inscrire | Disclaimer

   EN    FR    IT 

 









Légende :    VFR   VFR Marginal   IFR   IFR Intensif   IFR Très Intensif
Visi : 
Plafond : 
>= 8 km
>= 3000ft
5 à 8 km
1000 à 3000 ft
1500m à 5 km
500 à 1000 ft
800 à 1500m
200 à 500 ft
< 800m
< 200 ft
Symboles :   Orages  Brouillard  Fortes neiges  Fortes précipitations  Vent > 20 kt






- Altitude de l'aérodrome : 115 ft
- Code IATA : VCT


KVCT - Victoria Regional

DERNIER METAR :
  • 050051Z 06012KT 10SM -RA OVC006 15/13 A2992 RMK AO2 RAB42 SLP130 P0000 T01500128

METARs EXPIRÉS :
  • 042351Z 03012KT 10SM OVC006 15/13 A2992 RMK AO2 SLP131 60020 T01500133 10156 20128 50002
  • 042251Z 01012KT 10SM OVC005 16/14 A2993 RMK AO2 RAB08E40 SLP133 P0003 T01560139
  • 042151Z 36007KT 10SM OVC005 16/13 A2992 RMK AO2 RAE38 SLP131 P0002 T01560133

TAF KVCT
Valide du 05 à 00h jusqu'au 06 à 00h UTC


042333Z 0500/0524 02007KT 6SM BR VCSH OVC005
FM050400 02010KT 3SM BR OVC004
FM051600 06008KT 6SM BR OVC008
FM051900 07010KT P6SM OVC010



MET'MAP, la Météo Aéronautique d'un coup d'oeil ! - Copyright ORBIFLY Décembre 2007 - Disclaimer

ORBIFLY MET'MAP TEAM :

Programmation & Développement : Alexandra Zaïnal
Sur une idée originale de : Baudouin d'Aumeries
Assistance à la programmation : Marc-Olivier Méhu
Soutien technique & logistique : Manuel Goepfert

Contact : metmap@orbifly.com




SOURCES & CREDITS :

   NOAA       Earth
Advisory